createdAt,value
2019-04-01T00:00:23.294Z,1.00
2019-04-01T00:02:51.777Z,1.00
2019-04-01T00:05:20.278Z,0.90
2019-04-01T00:07:48.712Z,0.90
2019-04-01T00:10:17.150Z,0.80
2019-04-01T00:12:45.649Z,0.80
2019-04-01T00:15:14.237Z,0.80
2019-04-01T00:17:42.687Z,0.70
2019-04-01T00:20:11.383Z,0.70
2019-04-01T00:22:39.936Z,0.70
2019-04-01T00:25:08.782Z,0.60
2019-04-01T00:27:37.278Z,0.60
2019-04-01T00:30:05.780Z,0.60
2019-04-01T00:32:34.216Z,0.50
2019-04-01T00:35:02.719Z,0.50
2019-04-01T00:37:31.162Z,0.40
2019-04-01T00:39:59.601Z,0.40
2019-04-01T00:42:29.749Z,0.40
2019-04-01T00:44:58.181Z,0.40
2019-04-01T00:47:26.623Z,0.30
2019-04-01T00:49:55.408Z,0.30
2019-04-01T00:52:23.858Z,0.30
2019-04-01T00:54:52.549Z,0.20
2019-04-01T00:57:20.987Z,0.20
2019-04-01T00:59:49.431Z,0.10
2019-04-01T01:02:17.906Z,0.10
2019-04-01T01:04:46.379Z,0.10
2019-04-01T01:07:14.849Z,0.00
2019-04-01T01:09:43.289Z,0.00
2019-04-01T01:12:11.773Z,0.00
2019-04-01T01:14:40.205Z,0.00
2019-04-01T01:17:08.681Z,0.00
2019-04-01T01:19:37.126Z,-0.10
2019-04-01T01:22:05.645Z,-0.10
2019-04-01T01:24:34.082Z,-0.10
2019-04-01T01:27:02.593Z,-0.10
2019-04-01T01:29:31.080Z,-0.20
2019-04-01T01:31:59.587Z,-0.20
2019-04-01T01:34:28.026Z,-0.20
2019-04-01T01:36:56.474Z,-0.30
2019-04-01T01:39:24.952Z,-0.30
2019-04-01T01:41:53.396Z,-0.30
2019-04-01T01:44:21.880Z,-0.30
2019-04-01T01:46:50.323Z,-0.40
2019-04-01T01:49:18.796Z,-0.40
2019-04-01T01:51:47.243Z,-0.40
2019-04-01T01:54:15.750Z,-0.40
2019-04-01T01:56:44.190Z,-0.40
2019-04-01T01:59:12.639Z,-0.50
2019-04-01T02:01:41.124Z,-0.50
2019-04-01T02:04:09.567Z,-0.60
2019-04-01T02:06:38.018Z,-0.60
2019-04-01T02:09:06.639Z,-0.60
2019-04-01T02:11:35.090Z,-0.60
2019-04-01T02:14:03.603Z,-0.60
2019-04-01T02:16:32.037Z,-0.60
2019-04-01T02:19:00.502Z,-0.60
2019-04-01T02:21:29.442Z,-0.60
2019-04-01T02:23:58.031Z,-0.70
2019-04-01T02:26:26.722Z,-0.70
2019-04-01T02:28:55.281Z,-0.70
2019-04-01T02:31:23.738Z,-0.80
2019-04-01T02:33:52.598Z,-0.70
2019-04-01T02:36:21.038Z,-0.70
2019-04-01T02:38:49.497Z,-0.70
2019-04-01T02:41:18.071Z,-0.80
2019-04-01T02:43:46.626Z,-0.80
2019-04-01T02:46:15.087Z,-0.80
2019-04-01T02:48:43.579Z,-0.80
2019-04-01T02:51:12.095Z,-0.90
2019-04-01T02:53:40.980Z,-0.90
2019-04-01T02:56:09.525Z,-1.00
2019-04-01T02:58:38.045Z,-1.00
2019-04-01T03:01:06.614Z,-1.00
2019-04-01T03:03:35.056Z,-1.00
2019-04-01T03:06:03.517Z,-1.00
2019-04-01T03:08:32.074Z,-1.00
2019-04-01T03:11:00.535Z,-1.00
2019-04-01T03:13:29.269Z,-1.00
2019-04-01T03:15:57.719Z,-1.10
2019-04-01T03:18:26.257Z,-1.10
2019-04-01T03:20:54.840Z,-1.20
2019-04-01T03:23:23.352Z,-1.20
2019-04-01T03:25:52.334Z,-1.20
2019-04-01T03:28:21.061Z,-1.20
2019-04-01T03:30:49.587Z,-1.30
2019-04-01T03:33:18.103Z,-1.30
2019-04-01T03:35:46.617Z,-1.30
2019-04-01T03:38:15.069Z,-1.30
2019-04-01T03:40:43.522Z,-1.30
2019-04-01T03:43:12.016Z,-1.30
2019-04-01T03:45:40.533Z,-1.30
2019-04-01T03:48:09.057Z,-1.40
2019-04-01T03:50:37.618Z,-1.40
2019-04-01T03:53:06.065Z,-1.40
2019-04-01T03:55:35.270Z,-1.40
2019-04-01T03:58:04.083Z,-1.40
2019-04-01T04:00:32.540Z,-1.40
2019-04-01T04:03:01.061Z,-1.40
2019-04-01T04:05:29.524Z,-1.50
2019-04-01T04:07:57.996Z,-1.50
2019-04-01T04:10:26.527Z,-1.50
2019-04-01T04:12:54.977Z,-1.60
2019-04-01T04:15:23.465Z,-1.60
2019-04-01T04:17:51.957Z,-1.70
2019-04-01T04:20:20.471Z,-1.70
2019-04-01T04:22:48.986Z,-1.70
2019-04-01T04:25:17.616Z,-1.70
2019-04-01T04:27:46.068Z,-1.80
2019-04-01T04:30:17.629Z,-1.80
2019-04-01T04:32:46.206Z,-1.80
2019-04-01T04:35:14.794Z,-1.80
2019-04-01T04:37:43.424Z,-1.80
2019-04-01T04:40:12.721Z,-1.80
2019-04-01T04:42:41.170Z,-1.80
2019-04-01T04:45:09.889Z,-1.80
2019-04-01T04:47:38.593Z,-1.80
2019-04-01T04:50:07.484Z,-1.80
2019-04-01T04:52:35.929Z,-1.80
2019-04-01T04:55:05.664Z,-1.80
2019-04-01T04:57:34.185Z,-1.80
2019-04-01T05:00:03.162Z,-1.80
2019-04-01T05:02:31.690Z,-1.80
2019-04-01T05:05:00.471Z,-1.70
2019-04-01T05:07:31.407Z,-1.70
2019-04-01T05:09:59.167Z,-1.70
2019-04-01T05:12:27.646Z,-1.70
2019-04-01T05:14:56.243Z,-1.70
2019-04-01T05:17:24.694Z,-1.70
2019-04-01T05:19:53.143Z,-1.70
2019-04-01T05:22:23.018Z,-1.70
2019-04-01T05:24:52.808Z,-1.60
2019-04-01T05:27:24.451Z,-1.60
2019-04-01T05:29:54.503Z,-1.50
2019-04-01T05:32:22.957Z,-1.50
2019-04-01T05:35:12.326Z,-1.50
2019-04-01T05:37:41.019Z,-1.40
2019-04-01T05:40:09.806Z,-1.40
2019-04-01T05:42:38.298Z,-1.30
2019-04-01T05:45:07.498Z,-1.30
2019-04-01T05:47:37.918Z,-1.30
2019-04-01T05:50:06.738Z,-1.30
2019-04-01T05:52:35.418Z,-1.30
2019-04-01T05:55:08.697Z,-1.20
2019-04-01T05:57:35.585Z,-1.20
2019-04-01T06:00:05.994Z,-1.10
2019-04-01T06:02:34.513Z,-1.10
2019-04-01T06:05:03.091Z,-1.00
2019-04-01T06:07:31.615Z,-0.90
2019-04-01T06:10:00.257Z,-0.90
2019-04-01T06:12:29.855Z,-0.80
2019-04-01T06:14:58.302Z,-0.80
2019-04-01T06:17:26.806Z,-0.70
2019-04-01T06:19:55.254Z,-0.60
2019-04-01T06:22:23.715Z,-0.60
2019-04-01T06:24:52.220Z,-0.50
2019-04-01T06:27:20.669Z,-0.40
2019-04-01T06:29:49.128Z,-0.30
2019-04-01T06:32:17.659Z,-0.20
2019-04-01T06:34:52.728Z,-0.10
2019-04-01T06:37:15.570Z,0.00
2019-04-01T06:39:44.220Z,0.20
2019-04-01T06:42:12.811Z,0.50
2019-04-01T06:44:41.254Z,0.60
2019-04-01T06:47:09.697Z,0.70
2019-04-01T06:49:38.192Z,1.10
2019-04-01T06:52:06.648Z,1.50
2019-04-01T06:54:35.090Z,1.50
2019-04-01T06:57:03.587Z,1.80
2019-04-01T06:59:32.165Z,1.90
2019-04-01T07:02:00.614Z,2.10
2019-04-01T07:04:29.090Z,2.20
2019-04-01T07:06:57.554Z,2.40
2019-04-01T07:09:26.111Z,2.40
2019-04-01T07:11:54.765Z,2.60
2019-04-01T07:14:23.240Z,2.70
2019-04-01T07:16:51.687Z,2.80
2019-04-01T07:19:20.167Z,2.90
2019-04-01T07:21:48.660Z,3.00
2019-04-01T07:24:17.181Z,3.20
2019-04-01T07:26:45.650Z,3.20
2019-04-01T07:29:14.485Z,3.30
2019-04-01T07:31:42.993Z,3.40
2019-04-01T07:34:11.438Z,3.50
2019-04-01T07:36:39.922Z,3.50
2019-04-01T07:39:08.369Z,3.60
2019-04-01T07:41:36.900Z,3.70
2019-04-01T07:44:05.548Z,3.80
2019-04-01T07:46:34.000Z,3.90
2019-04-01T07:49:02.712Z,4.00
2019-04-01T07:51:31.177Z,4.20
2019-04-01T07:53:59.665Z,4.40
2019-04-01T07:56:28.101Z,4.60
2019-04-01T07:58:56.586Z,4.70
2019-04-01T08:01:25.102Z,4.80
2019-04-01T08:03:53.547Z,4.90
2019-04-01T08:06:22.042Z,4.90
2019-04-01T08:08:51.230Z,5.10
2019-04-01T08:11:19.726Z,5.10
2019-04-01T08:13:48.278Z,5.10
2019-04-01T08:16:16.728Z,5.20
2019-04-01T08:18:45.184Z,5.40
2019-04-01T08:21:13.657Z,5.50
2019-04-01T08:23:42.153Z,5.50
2019-04-01T08:26:10.601Z,5.70
2019-04-01T08:28:39.048Z,5.70
2019-04-01T08:31:08.374Z,5.80
2019-04-01T08:33:36.816Z,5.90
2019-04-01T08:36:05.311Z,5.90
2019-04-01T08:38:33.758Z,6.00
2019-04-01T08:41:02.274Z,6.10
2019-04-01T08:43:30.960Z,6.10
2019-04-01T08:45:59.675Z,6.20
2019-04-01T08:48:28.125Z,6.30
2019-04-01T08:50:56.691Z,6.40
2019-04-01T08:53:25.234Z,6.50
2019-04-01T08:56:00.503Z,6.50
2019-04-01T08:58:23.885Z,6.60
2019-04-01T09:00:52.570Z,6.70
2019-04-01T09:03:21.018Z,6.80
2019-04-01T09:05:49.496Z,6.80
2019-04-01T09:08:18.215Z,6.80
2019-04-01T09:10:46.725Z,6.90
2019-04-01T09:13:15.442Z,6.90
2019-04-01T09:15:43.934Z,6.90
2019-04-01T09:18:12.374Z,7.00
2019-04-01T09:20:40.877Z,7.00
2019-04-01T09:23:09.327Z,7.00
2019-04-01T09:25:37.769Z,7.00
2019-04-01T09:28:06.257Z,7.10
2019-04-01T09:30:35.054Z,7.20
2019-04-01T09:33:03.619Z,7.30
2019-04-01T09:35:32.072Z,7.30
2019-04-01T09:38:00.536Z,7.20
2019-04-01T09:40:29.127Z,7.30
2019-04-01T09:42:57.773Z,7.30
2019-04-01T09:45:26.218Z,7.30
2019-04-01T09:47:54.697Z,7.40
2019-04-01T09:50:23.222Z,7.40
2019-04-01T09:52:51.662Z,7.50
2019-04-01T09:55:20.106Z,7.60
2019-04-01T09:57:48.619Z,7.60
2019-04-01T10:00:17.897Z,7.70
2019-04-01T10:02:46.343Z,7.90
2019-04-01T10:05:15.690Z,8.00
2019-04-01T10:07:44.234Z,8.00
2019-04-01T10:10:13.190Z,8.20
2019-04-01T10:12:41.702Z,8.20
2019-04-01T10:15:10.315Z,8.30
2019-04-01T10:17:38.760Z,8.20
2019-04-01T10:20:08.603Z,8.20
2019-04-01T10:22:37.127Z,8.20
2019-04-01T10:25:06.214Z,8.30
2019-04-01T10:27:34.686Z,8.30
2019-04-01T10:30:04.373Z,8.50
2019-04-01T10:32:32.854Z,8.60
2019-04-01T10:35:01.311Z,8.70
2019-04-01T10:37:29.789Z,8.50
2019-04-01T10:40:00.174Z,8.60
2019-04-01T10:42:28.489Z,8.80
2019-04-01T10:44:56.945Z,8.80
2019-04-01T10:47:25.643Z,9.00
2019-04-01T10:49:54.209Z,9.40
2019-04-01T10:52:22.724Z,9.60
2019-04-01T10:54:51.392Z,9.70
2019-04-01T10:57:20.041Z,9.50
2019-04-01T10:59:48.728Z,9.40
2019-04-01T11:02:18.551Z,9.70
2019-04-01T11:04:47.287Z,10.00
2019-04-01T11:07:15.852Z,10.40
2019-04-01T11:09:44.441Z,10.60
2019-04-01T11:12:12.898Z,10.90
2019-04-01T11:14:41.458Z,11.00
2019-04-01T11:17:09.946Z,11.30
2019-04-01T11:19:39.460Z,11.30
2019-04-01T11:22:08.182Z,11.00
2019-04-01T11:24:36.642Z,11.10
2019-04-01T11:27:05.170Z,11.20
2019-04-01T11:29:33.899Z,11.20
2019-04-01T11:32:02.439Z,11.50
2019-04-01T11:34:30.983Z,12.00
2019-04-01T11:36:59.541Z,12.50
2019-04-01T11:39:27.993Z,12.60
2019-04-01T11:41:56.578Z,12.20
2019-04-01T11:44:25.102Z,12.70
2019-04-01T11:46:53.841Z,12.80
2019-04-01T11:49:22.527Z,12.70
2019-04-01T11:51:51.028Z,12.70
2019-04-01T11:54:19.582Z,13.20
2019-04-01T11:56:48.029Z,13.60
2019-04-01T11:59:16.496Z,13.60
2019-04-01T12:01:44.998Z,13.90
2019-04-01T12:04:13.456Z,14.30
2019-04-01T12:06:41.905Z,14.20
2019-04-01T12:09:10.396Z,14.10
2019-04-01T12:11:38.840Z,14.40
2019-04-01T12:14:07.355Z,14.70
2019-04-01T12:16:35.884Z,14.90
2019-04-01T12:19:04.407Z,15.30
2019-04-01T12:21:32.895Z,15.50
2019-04-01T12:24:01.593Z,15.30
2019-04-01T12:26:30.117Z,15.20
2019-04-01T12:28:58.573Z,15.60
2019-04-01T12:31:27.212Z,15.70
2019-04-01T12:33:55.735Z,16.10
2019-04-01T12:36:24.219Z,16.10
2019-04-01T12:38:53.829Z,16.40
2019-04-01T12:41:22.523Z,16.60
2019-04-01T12:43:51.320Z,17.00
2019-04-01T12:46:20.093Z,15.80
2019-04-01T12:48:48.610Z,16.00
2019-04-01T12:51:17.116Z,16.10
2019-04-01T12:53:45.972Z,16.20
2019-04-01T12:56:14.480Z,16.60
2019-04-01T12:58:42.996Z,16.50
2019-04-01T13:01:11.446Z,16.70
2019-04-01T13:03:39.975Z,16.30
2019-04-01T13:06:08.494Z,16.40
2019-04-01T13:08:36.938Z,16.10
2019-04-01T13:11:05.393Z,15.70
2019-04-01T13:13:33.880Z,15.50
2019-04-01T13:16:02.389Z,15.30
2019-04-01T13:18:30.847Z,16.00
2019-04-01T13:20:59.302Z,16.20
2019-04-01T13:23:27.811Z,16.40
2019-04-01T13:25:56.254Z,16.00
2019-04-01T13:28:25.964Z,16.60
2019-04-01T13:30:55.218Z,17.10
2019-04-01T13:33:24.034Z,17.60
2019-04-01T13:35:52.897Z,17.80
2019-04-01T13:38:21.808Z,18.10
2019-04-01T13:40:50.340Z,17.30
2019-04-01T13:43:18.807Z,17.40
2019-04-01T13:45:47.322Z,17.70
2019-04-01T13:48:15.773Z,17.10
2019-04-01T13:50:44.318Z,16.60
2019-04-01T13:53:12.826Z,16.80
2019-04-01T13:55:41.269Z,17.40
2019-04-01T13:58:10.505Z,17.10
2019-04-01T14:00:39.546Z,16.80
2019-04-01T14:03:11.057Z,16.70
2019-04-01T14:05:38.220Z,17.10
2019-04-01T14:08:06.815Z,17.80
2019-04-01T14:10:35.333Z,18.20
2019-04-01T14:13:03.871Z,18.40
2019-04-01T14:15:32.453Z,16.50
2019-04-01T14:18:00.917Z,16.20
2019-04-01T14:20:29.405Z,15.80
2019-04-01T14:22:59.603Z,16.40
2019-04-01T14:25:28.594Z,15.80
2019-04-01T14:27:57.055Z,15.60
2019-04-01T14:30:25.542Z,15.80
2019-04-01T14:32:53.990Z,16.70
2019-04-01T14:35:23.872Z,17.60
2019-04-01T14:37:52.535Z,17.50
2019-04-01T14:40:20.992Z,18.10
2019-04-01T14:42:49.514Z,18.40
2019-04-01T14:45:18.022Z,17.40
2019-04-01T14:47:56.974Z,17.20
2019-04-01T14:50:17.031Z,17.70
2019-04-01T14:52:45.541Z,17.60
2019-04-01T14:55:13.999Z,17.90
2019-04-01T14:57:42.464Z,17.50
2019-04-01T15:00:12.741Z,18.00
2019-04-01T15:02:41.460Z,18.40
2019-04-01T15:05:10.755Z,18.70
2019-04-01T15:07:39.423Z,18.90
2019-04-01T15:10:08.607Z,19.00
2019-04-01T15:12:37.086Z,18.70
2019-04-01T15:15:07.973Z,18.60
2019-04-01T15:17:36.999Z,18.70
2019-04-01T15:20:07.557Z,18.30
2019-04-01T15:22:35.234Z,18.80
2019-04-01T15:25:05.717Z,18.90
2019-04-01T15:27:34.231Z,19.20
2019-04-01T15:30:02.747Z,19.40
2019-04-01T15:32:31.235Z,19.50
2019-04-01T15:34:59.750Z,19.30
2019-04-01T15:37:31.789Z,18.90
2019-04-01T15:39:58.667Z,18.60
2019-04-01T15:42:27.186Z,18.70
2019-04-01T15:44:55.629Z,18.30
2019-04-01T15:47:24.229Z,18.50
2019-04-01T15:49:52.757Z,18.60
2019-04-01T15:52:21.290Z,18.10
2019-04-01T15:54:49.889Z,17.80
2019-04-01T15:57:18.343Z,17.90
2019-04-01T15:59:46.862Z,18.20
2019-04-01T16:02:15.439Z,18.60
2019-04-01T16:04:43.886Z,18.30
2019-04-01T16:07:12.345Z,18.10
2019-04-01T16:09:41.084Z,18.20
2019-04-01T16:12:09.532Z,18.40
2019-04-01T16:14:37.985Z,17.90
2019-04-01T16:17:06.488Z,17.80
2019-04-01T16:19:35.022Z,17.80
2019-04-01T16:22:03.528Z,17.30
2019-04-01T16:24:31.995Z,17.30
2019-04-01T16:27:00.463Z,17.40
2019-04-01T16:29:29.036Z,16.80
2019-04-01T16:31:57.860Z,16.70
2019-04-01T16:34:26.716Z,16.50
2019-04-01T16:36:55.299Z,16.70
2019-04-01T16:39:23.746Z,16.90
2019-04-01T16:41:52.199Z,16.50
2019-04-01T16:44:20.895Z,16.50
2019-04-01T16:46:50.308Z,16.60
2019-04-01T16:49:18.757Z,16.50
2019-04-01T16:51:47.248Z,16.20
2019-04-01T16:54:15.782Z,16.20
2019-04-01T16:56:44.303Z,16.10
2019-04-01T16:59:12.754Z,15.90
2019-04-01T17:01:41.706Z,15.90
2019-04-01T17:04:10.405Z,15.70
2019-04-01T17:06:38.858Z,15.30
2019-04-01T17:09:08.954Z,15.20
2019-04-01T17:11:37.489Z,14.90
2019-04-01T17:14:08.959Z,14.70
2019-04-01T17:16:36.124Z,14.30
2019-04-01T17:19:04.598Z,13.90
2019-04-01T17:21:33.205Z,13.70
2019-04-01T17:24:02.633Z,13.30
2019-04-01T17:26:31.214Z,13.00
2019-04-01T17:28:59.658Z,12.70
2019-04-01T17:31:28.982Z,12.30
2019-04-01T17:33:57.501Z,12.00
2019-04-01T17:36:26.019Z,11.90
2019-04-01T17:38:54.477Z,11.60
2019-04-01T17:41:22.930Z,11.50
2019-04-01T17:43:51.451Z,11.30
2019-04-01T17:46:19.907Z,11.10
2019-04-01T17:48:48.351Z,10.90
2019-04-01T17:51:16.850Z,10.70
2019-04-01T17:53:45.310Z,10.60
2019-04-01T17:56:13.840Z,10.50
2019-04-01T17:58:42.411Z,10.30
2019-04-01T18:01:11.988Z,10.10
2019-04-01T18:03:40.437Z,10.00
2019-04-01T18:06:08.950Z,9.80
2019-04-01T18:08:37.398Z,9.80
2019-04-01T18:11:05.833Z,9.60
2019-04-01T18:13:34.323Z,9.60
2019-04-01T18:16:02.835Z,9.50
2019-04-01T18:18:33.895Z,9.40
2019-04-01T18:21:02.427Z,9.20
2019-04-01T18:23:31.834Z,9.10
2019-04-01T18:26:00.349Z,8.90
2019-04-01T18:28:28.794Z,8.80
2019-04-01T18:30:57.313Z,8.70
2019-04-01T18:33:25.837Z,8.60
2019-04-01T18:35:54.613Z,8.50
2019-04-01T18:38:23.351Z,8.40
2019-04-01T18:40:51.966Z,8.30
2019-04-01T18:43:20.419Z,8.20
2019-04-01T18:45:48.906Z,8.10
2019-04-01T18:48:19.330Z,8.00
2019-04-01T18:50:47.536Z,8.00
2019-04-01T18:53:16.042Z,7.80
2019-04-01T18:55:44.491Z,7.80
2019-04-01T18:58:12.931Z,7.70
2019-04-01T19:00:41.402Z,7.60
2019-04-01T19:03:10.675Z,7.50
2019-04-01T19:05:39.526Z,7.50
2019-04-01T19:08:08.299Z,7.40
2019-04-01T19:10:39.290Z,7.40
2019-04-01T19:13:11.307Z,7.30
2019-04-01T19:15:38.525Z,7.20
2019-04-01T19:18:07.453Z,7.20
2019-04-01T19:20:35.902Z,7.10
2019-04-01T19:23:04.418Z,7.00
2019-04-01T19:25:32.927Z,7.00
2019-04-01T19:28:01.370Z,6.90
2019-04-01T19:30:29.826Z,6.90
2019-04-01T19:32:58.308Z,6.80
2019-04-01T19:35:26.755Z,6.80
2019-04-01T19:37:56.141Z,6.70
2019-04-01T19:40:24.764Z,6.70
2019-04-01T19:42:53.248Z,6.60
2019-04-01T19:45:22.089Z,6.60
2019-04-01T19:47:50.533Z,6.50
2019-04-01T19:50:20.048Z,6.50
2019-04-01T19:52:48.557Z,6.40
2019-04-01T19:55:17.049Z,6.50
2019-04-01T19:57:45.494Z,6.40
2019-04-01T20:00:27.072Z,6.40
2019-04-01T20:02:44.645Z,6.40
2019-04-01T20:05:13.412Z,6.30
2019-04-01T20:07:41.917Z,6.30
2019-04-01T20:10:10.776Z,6.30
2019-04-01T20:12:40.267Z,6.20
2019-04-01T20:15:12.111Z,6.20
2019-04-01T20:17:41.280Z,6.10
2019-04-01T20:20:10.253Z,6.00
2019-04-01T20:22:38.712Z,6.00
2019-04-01T20:25:08.093Z,6.00
2019-04-01T20:27:36.550Z,5.90
2019-04-01T20:30:09.366Z,5.80
2019-04-01T20:32:38.148Z,5.80
2019-04-01T20:35:08.301Z,5.70
2019-04-01T20:37:36.868Z,5.70
2019-04-01T20:40:06.782Z,5.60
2019-04-01T20:42:35.305Z,5.50
2019-04-01T20:45:05.741Z,5.50
2019-04-01T20:47:33.405Z,5.50
2019-04-01T20:50:01.851Z,5.40
2019-04-01T20:52:30.330Z,5.40
2019-04-01T20:54:58.802Z,5.30
2019-04-01T20:57:27.256Z,5.30
2019-04-01T20:59:55.740Z,5.20
2019-04-01T21:02:24.185Z,5.20
2019-04-01T21:04:52.711Z,5.20
2019-04-01T21:07:21.221Z,5.20
2019-04-01T21:09:49.673Z,5.20
2019-04-01T21:12:18.152Z,5.10
2019-04-01T21:14:46.674Z,5.00
2019-04-01T21:17:15.123Z,5.00
2019-04-01T21:19:44.298Z,5.00
2019-04-01T21:22:13.538Z,5.00
2019-04-01T21:24:41.991Z,5.00
2019-04-01T21:27:10.467Z,4.90
2019-04-01T21:29:38.920Z,4.90
2019-04-01T21:32:07.406Z,4.90
2019-04-01T21:34:35.843Z,4.90
2019-04-01T21:37:06.076Z,4.90
2019-04-01T21:39:33.894Z,4.90
2019-04-01T21:42:02.408Z,4.90
2019-04-01T21:44:30.954Z,4.90
2019-04-01T21:46:59.466Z,4.90
2019-04-01T21:49:27.937Z,4.90
2019-04-01T21:51:56.381Z,4.90
2019-04-01T21:54:24.898Z,4.90
2019-04-01T21:56:53.340Z,4.80
2019-04-01T21:59:21.792Z,4.80
2019-04-01T22:01:50.306Z,4.90
2019-04-01T22:04:18.748Z,4.80
2019-04-01T22:06:47.262Z,4.80
2019-04-01T22:09:15.774Z,4.80
2019-04-01T22:11:44.223Z,4.70
2019-04-01T22:14:12.674Z,4.70
2019-04-01T22:16:41.253Z,4.70
2019-04-01T22:19:09.709Z,4.70
2019-04-01T22:21:38.145Z,4.70
2019-04-01T22:24:06.645Z,4.60
2019-04-01T22:26:35.088Z,4.70
2019-04-01T22:29:03.542Z,4.70
2019-04-01T22:31:32.120Z,4.60
2019-04-01T22:34:00.558Z,4.60
2019-04-01T22:36:31.179Z,4.60
2019-04-01T22:38:59.219Z,4.60
2019-04-01T22:41:29.190Z,4.50
2019-04-01T22:43:57.943Z,4.60
2019-04-01T22:46:26.647Z,4.60
2019-04-01T22:48:55.087Z,4.60
2019-04-01T22:51:23.606Z,4.50
2019-04-01T22:53:52.140Z,4.50
2019-04-01T22:56:20.674Z,4.50
2019-04-01T22:58:49.178Z,4.50
2019-04-01T23:01:17.609Z,4.50
2019-04-01T23:03:46.054Z,4.50
2019-04-01T23:06:14.557Z,4.40
2019-04-01T23:08:42.994Z,4.40
2019-04-01T23:11:11.445Z,4.40
2019-04-01T23:13:39.922Z,4.30
2019-04-01T23:16:08.401Z,4.40
2019-04-01T23:18:36.837Z,4.40
2019-04-01T23:21:05.349Z,4.40
2019-04-01T23:23:33.796Z,4.40
2019-04-01T23:26:02.246Z,4.30
2019-04-01T23:28:30.724Z,4.30
2019-04-01T23:30:59.174Z,4.20
2019-04-01T23:33:27.675Z,4.20
2019-04-01T23:35:56.122Z,4.20
2019-04-01T23:38:24.568Z,4.10
2019-04-01T23:40:53.042Z,4.10
2019-04-01T23:43:21.528Z,4.10
2019-04-01T23:45:50.055Z,4.00
2019-04-01T23:48:18.662Z,4.00
2019-04-01T23:50:47.110Z,3.90
2019-04-01T23:53:15.545Z,3.90
2019-04-01T23:55:44.043Z,3.80
2019-04-01T23:58:12.576Z,3.90
